Time;durP1;ratioP1;P1;durP2;ratioP2;P2;SDS_P1;SDS_P2;PMS_P1;PMS_P2;Temp;Humidity;BMP_temperature;BMP_pressure;BME280_temperature;BME280_humidity;BME280_pressure;Samples;Min_cycle;Max_cycle;Signal;HPM_P1;HPM_P2
2023/05/18 00:00:27;;;;;;;9.57;3.47;;;;;;;4.52;40.18;96347.31;4959713;28;20050;-68
2023/05/18 00:02:52;;;;;;;12.68;3.10;;;;;;;4.65;39.55;96340.09;4958605;28;20062;-68
2023/05/18 00:05:18;;;;;;;9.75;2.95;;;;;;;4.70;40.01;96343.19;4958417;28;20723;-68
2023/05/18 00:07:43;;;;;;;7.72;2.80;;;;;;;4.61;40.05;96345.72;4958405;28;20110;-68
2023/05/18 00:10:09;;;;;;;7.97;3.08;;;;;;;4.58;40.76;96344.19;4958736;28;20027;-68
2023/05/18 00:12:35;;;;;;;6.80;2.97;;;;;;;4.54;40.68;96340.09;4958993;28;20110;-68
2023/05/18 00:15:00;;;;;;;8.45;2.60;;;;;;;4.55;40.71;96334.72;4957035;28;20081;-68
2023/05/18 00:17:26;;;;;;;11.98;3.40;;;;;;;4.54;39.83;96337.47;4958594;28;20129;-68
2023/05/18 00:19:51;;;;;;;7.10;2.90;;;;;;;4.51;40.51;96329.78;4958765;28;20034;-68
2023/05/18 00:22:17;;;;;;;10.07;2.88;;;;;;;4.60;40.52;96334.34;4958362;28;20070;-68
2023/05/18 00:24:45;;;;;;;8.48;3.58;;;;;;;4.42;40.33;96336.66;4959037;28;20039;-68
2023/05/18 00:27:10;;;;;;;11.13;3.40;;;;;;;4.52;40.58;96339.41;4959238;28;20556;-68
2023/05/18 00:29:35;;;;;;;7.85;2.45;;;;;;;4.60;40.50;96336.16;4958539;28;20084;-68
2023/05/18 00:32:01;;;;;;;9.27;2.55;;;;;;;4.64;39.72;96341.06;4958150;28;20048;-68
2023/05/18 00:34:26;;;;;;;9.00;3.42;;;;;;;4.58;40.00;96342.38;4958032;28;20039;-68
2023/05/18 00:36:52;;;;;;;8.63;2.90;;;;;;;4.60;39.97;96344.06;4959091;28;20054;-68
2023/05/18 00:39:17;;;;;;;7.22;3.13;;;;;;;4.57;40.15;96339.88;4957888;28;20041;-68
2023/05/18 00:41:42;;;;;;;10.13;2.92;;;;;;;4.62;40.17;96342.16;4958164;28;20575;-68
2023/05/18 00:44:08;;;;;;;6.03;3.10;;;;;;;4.52;40.15;96342.88;4958809;28;20048;-68
2023/05/18 00:46:33;;;;;;;9.02;3.17;;;;;;;4.55;40.40;96336.50;4958319;28;20090;-68
2023/05/18 00:49:00;;;;;;;10.35;2.80;;;;;;;4.51;40.40;96337.72;4958231;28;20520;-68
2023/05/18 00:51:26;;;;;;;9.02;2.70;;;;;;;4.37;40.98;96334.38;4958885;28;20054;-68
2023/05/18 00:53:52;;;;;;;4.18;2.40;;;;;;;4.37;40.31;96339.66;4957576;28;20623;-68
2023/05/18 00:56:18;;;;;;;6.93;2.60;;;;;;;4.39;40.17;96332.44;4932515;28;20069;-68
2023/05/18 00:58:43;;;;;;;5.53;3.00;;;;;;;4.30;40.36;96341.94;4934530;28;20560;-68
2023/05/18 01:01:08;;;;;;;10.75;2.90;;;;;;;4.21;41.23;96339.19;4952567;28;20051;-68
2023/05/18 01:03:37;;;;;;;11.07;2.60;;;;;;;4.23;41.05;96339.88;4975698;23;20071;-69
2023/05/18 01:06:06;;;;;;;8.02;2.50;;;;;;;4.18;40.69;96342.88;4944161;28;20099;-70
2023/05/18 01:08:35;;;;;;;7.18;2.72;;;;;;;4.11;40.83;96344.34;4943042;28;20069;-70
2023/05/18 01:11:27;;;;;;;7.25;2.35;;;;;;;3.97;41.05;96343.59;4943513;28;20093;-69
2023/05/18 01:13:56;;;;;;;6.63;2.75;;;;;;;4.08;40.96;96340.13;4942118;28;20080;-69
2023/05/18 01:16:25;;;;;;;7.07;2.85;;;;;;;4.07;40.68;96338.44;4959045;28;20139;-70
2023/05/18 01:18:59;;;;;;;4.28;2.28;;;;;;;4.00;41.12;96337.25;4954240;28;20037;-70
2023/05/18 01:21:45;;;;;;;5.90;2.83;;;;;;;3.92;41.41;96341.31;4945891;28;20377;-69
2023/05/18 01:24:16;;;;;;;8.95;2.70;;;;;;;3.83;42.42;96338.53;4945230;28;20045;-69
2023/05/18 01:26:44;;;;;;;7.93;2.63;;;;;;;3.88;41.42;96339.88;4944485;28;20079;-69
2023/05/18 01:29:10;;;;;;;8.75;3.03;;;;;;;3.80;42.11;96344.88;4931744;28;20045;-69
2023/05/18 01:31:35;;;;;;;7.32;2.70;;;;;;;3.79;41.96;96343.22;4942016;28;20046;-69
2023/05/18 01:34:01;;;;;;;7.00;2.55;;;;;;;3.88;41.65;96344.31;4941439;28;20569;-69
2023/05/18 01:36:26;;;;;;;9.90;2.50;;;;;;;3.94;41.00;96339.41;4941918;28;20166;-69
2023/05/18 01:38:52;;;;;;;7.57;2.88;;;;;;;3.83;41.40;96339.38;4924275;28;20069;-69
2023/05/18 01:41:24;;;;;;;9.77;2.78;;;;;;;3.85;41.75;96341.91;4944079;28;20404;-70
2023/05/18 01:44:22;;;;;;;8.13;3.13;;;;;;;3.65;42.44;96337.22;4924690;28;20040;-69
2023/05/18 01:47:00;;;;;;;7.93;2.38;;;;;;;3.73;42.26;96341.03;4941884;28;20172;-69
2023/05/18 01:49:32;;;;;;;6.53;2.75;;;;;;;3.68;42.17;96338.78;4946329;28;20368;-69
2023/05/18 01:52:02;;;;;;;6.63;2.80;;;;;;;3.64;42.23;96335.53;4942542;28;20297;-69
2023/05/18 01:54:28;;;;;;;10.27;2.70;;;;;;;3.68;42.24;96336.97;4943647;28;20086;-70
2023/05/18 01:56:54;;;;;;;6.35;2.85;;;;;;;3.72;42.20;96342.00;4926399;28;20052;-70
2023/05/18 01:59:21;;;;;;;8.00;2.67;;;;;;;3.73;41.14;96339.25;4926904;28;20096;-69
2023/05/18 02:01:46;;;;;;;10.00;2.90;;;;;;;3.55;42.04;96331.78;4946110;28;20080;-69
2023/05/18 02:04:11;;;;;;;7.03;2.70;;;;;;;3.48;41.47;96335.84;4940346;28;20483;-70
2023/05/18 02:06:37;;;;;;;5.60;2.30;;;;;;;3.51;42.32;96332.97;4938476;28;20065;-69
2023/05/18 02:09:04;;;;;;;9.10;2.63;;;;;;;3.57;42.09;96334.31;4954447;28;20057;-69
2023/05/18 02:11:29;;;;;;;7.70;2.28;;;;;;;3.54;41.63;96330.13;4939899;28;20057;-70
2023/05/18 02:13:55;;;;;;;16.55;2.83;;;;;;;3.58;42.33;96333.38;4940152;28;20065;-69
2023/05/18 02:16:20;;;;;;;9.15;3.10;;;;;;;3.56;41.92;96340.53;4939138;28;20290;-70
2023/05/18 02:18:45;;;;;;;6.53;3.15;;;;;;;3.49;42.50;96334.91;4938410;28;20064;-70
2023/05/18 02:21:12;;;;;;;6.45;2.78;;;;;;;3.34;43.51;96336.00;4940931;28;20073;-69
2023/05/18 02:23:38;;;;;;;9.20;3.10;;;;;;;3.14;44.32;96336.53;4943836;28;20052;-70
2023/05/18 02:26:03;;;;;;;5.68;2.60;;;;;;;3.17;43.33;96330.22;4943376;28;20402;-69
2023/05/18 02:28:29;;;;;;;7.03;2.60;;;;;;;3.17;43.18;96336.31;4943612;28;20258;-69
2023/05/18 02:31:06;;;;;;;8.23;2.70;;;;;;;3.25;42.89;96337.53;4943110;28;20082;-70
2023/05/18 02:33:38;;;;;;;6.85;2.33;;;;;;;3.20;42.50;96337.03;4943218;28;20123;-70
2023/05/18 02:36:06;;;;;;;5.13;2.80;;;;;;;3.06;43.02;96335.44;4941410;29;20046;-70
2023/05/18 02:38:31;;;;;;;12.00;3.08;;;;;;;2.96;43.45;96330.81;4943077;28;20103;-69
2023/05/18 02:40:57;;;;;;;7.63;2.38;;;;;;;2.93;43.82;96332.84;4943118;28;20067;-69
2023/05/18 02:43:22;;;;;;;7.30;2.63;;;;;;;3.08;43.00;96330.88;4942688;28;20075;-69
2023/05/18 02:45:47;;;;;;;7.82;2.80;;;;;;;3.08;42.54;96331.72;4942974;28;20073;-69
2023/05/18 02:48:13;;;;;;;9.63;2.90;;;;;;;3.02;43.39;96337.44;4942993;28;20102;-70
2023/05/18 02:50:38;;;;;;;8.38;3.03;;;;;;;3.04;43.40;96332.91;4943146;28;20076;-70
2023/05/18 02:53:04;;;;;;;8.07;2.60;;;;;;;3.09;43.13;96329.94;4942741;28;20051;-69
2023/05/18 02:55:29;;;;;;;8.73;2.75;;;;;;;3.08;43.29;96336.16;4943079;28;20052;-70
2023/05/18 02:57:56;;;;;;;6.07;2.55;;;;;;;3.11;42.49;96331.50;4942546;28;20184;-69
2023/05/18 03:00:22;;;;;;;5.55;2.40;;;;;;;3.11;42.75;96333.28;4942698;28;20085;-70
2023/05/18 03:02:49;;;;;;;6.18;2.30;;;;;;;3.07;43.00;96339.72;4941651;28;20124;-69
2023/05/18 03:05:15;;;;;;;9.25;3.22;;;;;;;3.00;42.78;96334.91;4942379;28;20051;-69
2023/05/18 03:07:44;;;;;;;5.78;2.55;;;;;;;2.98;43.27;96338.63;4942690;28;20060;-69
2023/05/18 03:10:10;;;;;;;10.90;2.90;;;;;;;3.00;43.01;96344.63;4941872;28;20077;-69
2023/05/18 03:12:35;;;;;;;6.82;2.50;;;;;;;2.96;43.69;96338.72;4942536;28;20083;-69
2023/05/18 03:15:01;;;;;;;6.60;2.80;;;;;;;3.01;43.16;96344.50;4942909;28;20119;-70
2023/05/18 03:17:26;;;;;;;8.00;2.85;;;;;;;2.76;43.98;96343.63;4942436;28;20074;-70
2023/05/18 03:19:51;;;;;;;6.90;2.60;;;;;;;2.95;42.77;96342.31;4941093;28;20044;-69
2023/05/18 03:22:17;;;;;;;7.75;2.42;;;;;;;2.90;43.92;96334.75;4941625;28;20087;-69
2023/05/18 03:24:43;;;;;;;7.88;2.95;;;;;;;2.99;43.10;96335.06;4941190;29;20628;-70
2023/05/18 03:27:08;;;;;;;7.78;2.60;;;;;;;2.95;43.36;96337.06;4941686;28;20074;-69
2023/05/18 03:29:34;;;;;;;8.85;2.75;;;;;;;2.91;43.52;96341.72;4942140;28;20229;-70
2023/05/18 03:31:59;;;;;;;8.70;2.92;;;;;;;2.93;43.65;96338.13;4942206;28;20066;-70
2023/05/18 03:34:25;;;;;;;7.22;2.70;;;;;;;2.78;44.05;96339.13;4941751;28;20076;-70
2023/05/18 03:36:51;;;;;;;7.38;2.60;;;;;;;2.69;44.17;96336.31;4942355;28;20056;-69
2023/05/18 03:39:16;;;;;;;8.18;2.50;;;;;;;2.96;42.93;96335.28;4941781;28;20523;-70
2023/05/18 03:41:42;;;;;;;8.73;2.65;;;;;;;2.99;43.25;96345.56;4941743;28;20184;-69
2023/05/18 03:44:07;;;;;;;5.50;2.88;;;;;;;2.93;43.06;96341.59;4942210;28;20052;-69
2023/05/18 03:46:33;;;;;;;7.03;2.67;;;;;;;2.69;44.00;96347.66;4941654;28;20124;-70
2023/05/18 03:48:58;;;;;;;14.48;2.70;;;;;;;2.85;43.87;96344.78;4942200;28;20074;-70
2023/05/18 03:51:25;;;;;;;8.43;2.92;;;;;;;2.86;43.61;96343.81;4941567;28;20073;-70
2023/05/18 03:53:51;;;;;;;6.82;2.55;;;;;;;2.77;43.80;96349.75;4941725;28;20080;-70
2023/05/18 03:56:16;;;;;;;6.70;2.50;;;;;;;2.72;44.35;96346.63;4941864;29;20043;-69
2023/05/18 03:58:43;;;;;;;6.05;2.75;;;;;;;2.81;43.68;96337.22;4941109;28;20065;-70
2023/05/18 04:01:08;;;;;;;9.07;2.67;;;;;;;2.83;43.57;96343.22;4940814;28;20516;-70
2023/05/18 04:03:34;;;;;;;11.93;2.60;;;;;;;2.70;43.78;96346.72;4941448;28;20123;-70
2023/05/18 04:05:59;;;;;;;8.35;2.58;;;;;;;2.86;43.41;96337.72;4941275;28;20087;-70
2023/05/18 04:08:25;;;;;;;4.90;2.60;;;;;;;2.81;43.81;96347.72;4941664;28;20520;-70
2023/05/18 04:10:50;;;;;;;7.63;2.80;;;;;;;2.70;44.95;96338.00;4941292;28;20307;-70
2023/05/18 04:13:16;;;;;;;12.70;3.10;;;;;;;2.77;44.79;96344.50;4939576;28;20589;-70
2023/05/18 04:15:42;;;;;;;8.68;2.80;;;;;;;2.95;44.11;96341.47;4940175;28;20048;-70
2023/05/18 04:18:09;;;;;;;9.30;2.90;;;;;;;2.91;44.34;96343.50;4941220;28;20066;-70
2023/05/18 04:20:34;;;;;;;6.93;2.75;;;;;;;2.98;44.23;96346.50;4941004;28;20064;-70
2023/05/18 04:23:00;;;;;;;8.57;2.85;;;;;;;3.06;44.41;96346.78;4941742;28;20082;-70
2023/05/18 04:25:28;;;;;;;10.75;3.20;;;;;;;3.12;43.94;96345.50;4941068;28;20094;-69
2023/05/18 04:27:54;;;;;;;5.50;2.50;;;;;;;3.04;45.11;96351.34;4939775;29;20524;-70
2023/05/18 04:30:21;;;;;;;10.05;2.80;;;;;;;2.93;45.69;96351.28;4938900;28;20104;-70
2023/05/18 04:32:46;;;;;;;8.02;2.72;;;;;;;3.23;44.14;96349.97;4941358;28;20123;-70
2023/05/18 04:35:12;;;;;;;9.05;2.80;;;;;;;3.22;44.06;96345.66;4939035;29;20117;-69
2023/05/18 04:37:41;;;;;;;5.07;2.30;;;;;;;3.46;43.51;96347.44;4939327;29;20139;-70
2023/05/18 04:40:11;;;;;;;6.28;2.85;;;;;;;3.30;44.56;96349.41;4940639;28;20479;-70
2023/05/18 04:42:37;;;;;;;5.82;2.55;;;;;;;3.58;43.42;96345.69;4939104;28;20083;-70
2023/05/18 04:45:04;;;;;;;8.48;2.67;;;;;;;3.78;44.27;96346.81;4939900;28;20142;-70
2023/05/18 04:47:30;;;;;;;11.43;3.15;;;;;;;3.91;43.75;96339.63;4940789;29;20075;-70
2023/05/18 04:49:55;;;;;;;8.55;2.47;;;;;;;3.99;42.72;96340.84;4941163;28;20575;-69
2023/05/18 04:52:21;;;;;;;11.50;2.90;;;;;;;3.91;43.03;96349.34;4940973;29;20047;-70
2023/05/18 04:54:46;;;;;;;7.85;2.70;;;;;;;3.98;43.75;96347.91;4940557;28;20064;-69
2023/05/18 04:57:12;;;;;;;8.25;2.67;;;;;;;4.29;42.25;96352.59;4940222;28;20047;-70
2023/05/18 04:59:38;;;;;;;9.52;2.80;;;;;;;4.44;41.92;96346.13;4940847;28;20146;-70
2023/05/18 05:02:03;;;;;;;5.20;2.33;;;;;;;4.65;42.23;96352.44;4940386;28;20082;-70
2023/05/18 05:04:29;;;;;;;8.23;2.70;;;;;;;4.56;41.99;96341.66;4940600;28;20099;-70
2023/05/18 05:06:54;;;;;;;10.55;2.70;;;;;;;4.74;41.80;96351.72;4940281;28;20628;-70
2023/05/18 05:09:20;;;;;;;10.43;2.67;;;;;;;5.02;41.07;96349.47;4939856;28;20073;-70
2023/05/18 05:11:45;;;;;;;6.35;2.50;;;;;;;5.07;40.76;96351.78;4940588;29;20053;-70
2023/05/18 05:14:11;;;;;;;8.07;2.60;;;;;;;4.95;41.46;96353.56;4939826;28;20035;-70
2023/05/18 05:16:36;;;;;;;6.20;2.40;;;;;;;5.25;41.02;96344.16;4940372;28;20024;-70
2023/05/18 05:19:01;;;;;;;8.80;2.42;;;;;;;5.39;41.05;96348.28;4939709;28;20071;-70
2023/05/18 05:21:27;;;;;;;6.80;2.60;;;;;;;5.54;40.49;96353.28;4940023;28;20031;-70
2023/05/18 05:23:52;;;;;;;8.55;2.90;;;;;;;5.69;40.18;96345.84;4939347;29;20027;-70
2023/05/18 05:26:18;;;;;;;8.77;2.60;;;;;;;5.80;40.42;96348.44;4940129;28;20039;-70
2023/05/18 05:28:43;;;;;;;7.63;2.50;;;;;;;6.02;39.62;96351.06;4940749;28;20429;-70
2023/05/18 05:31:09;;;;;;;6.68;2.40;;;;;;;5.71;41.09;96343.91;4940000;28;20567;-70
2023/05/18 05:33:34;;;;;;;7.53;2.75;;;;;;;6.18;39.57;96346.13;4940154;28;20043;-69
2023/05/18 05:36:00;;;;;;;8.27;2.72;;;;;;;6.25;39.14;96347.28;4940131;28;20046;-70
2023/05/18 05:38:25;;;;;;;13.75;2.58;;;;;;;6.44;39.01;96343.03;4938690;28;20027;-70
2023/05/18 05:40:50;;;;;;;8.65;2.53;;;;;;;6.55;38.97;96349.19;4940110;28;20031;-70
2023/05/18 05:43:16;;;;;;;7.03;2.42;;;;;;;6.75;38.40;96347.47;4942186;28;20661;-70
2023/05/18 05:45:44;;;;;;;9.23;2.47;;;;;;;7.00;38.19;96346.09;4939833;28;20046;-70
2023/05/18 05:48:09;;;;;;;6.18;2.50;;;;;;;7.17;38.36;96341.09;4940393;28;20126;-70
2023/05/18 05:50:35;;;;;;;8.82;2.58;;;;;;;7.25;38.36;96343.88;4939874;28;20050;-70
2023/05/18 05:53:00;;;;;;;6.20;2.00;;;;;;;7.39;38.42;96355.06;4940133;28;20049;-70
2023/05/18 05:55:26;;;;;;;6.85;2.50;;;;;;;7.33;37.88;96355.59;4940233;28;20039;-70
2023/05/18 05:57:51;;;;;;;9.80;2.80;;;;;;;7.52;37.69;96352.13;4943734;28;20065;-70
2023/05/18 06:00:17;;;;;;;9.20;2.50;;;;;;;7.62;37.80;96352.13;4943867;28;20047;-70
2023/05/18 06:02:42;;;;;;;5.78;2.47;;;;;;;7.54;37.84;96355.47;4943049;28;20067;-69
2023/05/18 06:05:08;;;;;;;6.20;2.17;;;;;;;7.83;37.55;96362.59;4941860;28;20283;-70
2023/05/18 06:07:34;;;;;;;7.15;2.35;;;;;;;7.89;36.85;96359.34;4943858;28;20031;-70
2023/05/18 06:10:00;;;;;;;6.53;2.45;;;;;;;8.09;36.87;96361.13;4943846;28;20051;-69
2023/05/18 06:12:25;;;;;;;6.75;2.53;;;;;;;7.96;36.81;96358.78;4943606;28;20162;-70
2023/05/18 06:14:56;;;;;;;7.70;2.63;;;;;;;8.15;36.98;96357.88;4943500;28;20541;-70
2023/05/18 06:17:22;;;;;;;6.82;2.25;;;;;;;8.17;36.97;96363.91;4942790;28;20461;-70
2023/05/18 06:19:48;;;;;;;5.43;2.60;;;;;;;8.37;36.93;96363.84;4943514;28;20038;-70
2023/05/18 06:22:13;;;;;;;8.82;2.65;;;;;;;8.44;36.64;96364.94;4943031;28;20077;-70
2023/05/18 06:24:39;;;;;;;7.35;2.53;;;;;;;8.49;36.86;96365.31;4942432;29;20445;-70
2023/05/18 06:27:04;;;;;;;10.98;2.58;;;;;;;8.75;35.65;96371.75;4942911;28;20050;-70
2023/05/18 06:29:30;;;;;;;9.10;2.60;;;;;;;8.38;36.60;96376.97;4943460;28;20118;-70
2023/05/18 06:31:56;;;;;;;9.05;2.78;;;;;;;8.51;36.48;96381.94;4943351;28;20039;-70
2023/05/18 06:34:21;;;;;;;9.75;2.80;;;;;;;8.81;36.07;96381.81;4942880;28;20137;-70
2023/05/18 06:36:47;;;;;;;6.60;2.45;;;;;;;8.89;35.87;96384.53;4943196;28;20544;-70
2023/05/18 06:39:12;;;;;;;6.38;2.50;;;;;;;8.95;35.58;96381.31;4942512;28;20098;-70
2023/05/18 06:41:37;;;;;;;6.95;2.53;;;;;;;9.06;35.33;96374.97;4943407;28;20027;-70
2023/05/18 06:44:03;;;;;;;7.93;2.50;;;;;;;9.44;35.16;96382.81;4942739;28;20065;-70
2023/05/18 06:46:28;;;;;;;7.53;2.50;;;;;;;9.52;34.54;96379.38;4942671;28;20063;-70
2023/05/18 06:48:54;;;;;;;9.90;2.50;;;;;;;9.66;34.57;96382.50;4943943;28;20082;-70
2023/05/18 06:51:19;;;;;;;8.18;2.42;;;;;;;9.76;34.41;96385.88;4936476;28;20198;-70
2023/05/18 06:53:45;;;;;;;9.70;2.50;;;;;;;9.96;34.38;96391.88;4939921;28;20039;-70
2023/05/18 06:56:11;;;;;;;7.47;2.60;;;;;;;9.96;34.67;96385.69;4939386;29;20103;-70
2023/05/18 06:58:37;;;;;;;8.20;2.53;;;;;;;10.15;33.81;96390.03;4939564;28;20042;-70
2023/05/18 07:01:03;;;;;;;7.47;2.45;;;;;;;9.95;34.46;96387.53;4943701;28;20034;-70
2023/05/18 07:03:28;;;;;;;6.85;2.30;;;;;;;10.31;33.21;96397.31;4942707;29;20106;-70
2023/05/18 07:05:54;;;;;;;7.10;2.38;;;;;;;10.39;33.49;96390.34;4943396;28;20417;-70
2023/05/18 07:08:19;;;;;;;6.22;2.40;;;;;;;10.62;33.12;96390.63;4942609;28;20160;-70
2023/05/18 07:10:45;;;;;;;5.95;2.30;;;;;;;10.76;32.52;96389.19;4943168;28;20047;-70
2023/05/18 07:13:11;;;;;;;8.15;2.70;;;;;;;10.62;32.90;96388.78;4943215;28;20027;-70
2023/05/18 07:15:36;;;;;;;9.82;3.00;;;;;;;10.68;33.37;96394.50;4944494;28;20398;-71
2023/05/18 07:18:02;;;;;;;8.68;2.75;;;;;;;10.85;32.60;96388.22;4940316;29;20524;-69
2023/05/18 07:20:27;;;;;;;9.73;3.08;;;;;;;10.99;32.00;96380.63;4943173;28;20419;-70
2023/05/18 07:22:54;;;;;;;7.18;2.53;;;;;;;11.24;32.07;96391.38;4942820;28;20035;-70
2023/05/18 07:25:20;;;;;;;5.93;2.30;;;;;;;11.34;31.81;96389.41;4942816;28;20047;-70
2023/05/18 07:27:46;;;;;;;6.43;2.40;;;;;;;11.46;32.40;96391.75;4943361;28;20398;-70
2023/05/18 07:30:11;;;;;;;6.10;2.50;;;;;;;11.68;31.88;96395.59;4941909;28;20081;-69
2023/05/18 07:32:37;;;;;;;6.43;2.60;;;;;;;11.58;31.94;96398.44;4943054;29;20110;-70
2023/05/18 07:35:02;;;;;;;7.05;2.70;;;;;;;11.88;31.46;96384.59;4943205;28;20103;-70
2023/05/18 07:37:28;;;;;;;8.00;3.10;;;;;;;11.83;30.89;96395.75;4942112;28;20412;-69
2023/05/18 07:39:53;;;;;;;8.75;2.58;;;;;;;11.97;31.47;96388.91;4942795;29;20277;-70
2023/05/18 07:42:19;;;;;;;6.78;2.40;;;;;;;12.12;31.45;96383.78;4942783;28;20039;-69
2023/05/18 07:44:44;;;;;;;7.47;2.70;;;;;;;12.33;30.81;96385.06;4944675;28;20042;-70
2023/05/18 07:47:10;;;;;;;9.63;2.60;;;;;;;12.26;30.34;96386.75;4943832;28;20118;-70
2023/05/18 07:49:37;;;;;;;7.45;2.47;;;;;;;12.48;29.98;96395.88;4943861;28;20027;-70
2023/05/18 07:52:07;;;;;;;6.50;2.47;;;;;;;12.25;30.08;96388.59;4944294;28;20313;-70
2023/05/18 07:54:33;;;;;;;12.75;2.50;;;;;;;12.27;30.19;96389.25;4944753;28;20307;-70
2023/05/18 07:56:58;;;;;;;9.85;2.72;;;;;;;12.60;30.14;96388.31;4943726;28;20046;-69
2023/05/18 07:59:23;;;;;;;5.25;2.28;;;;;;;12.81;29.30;96392.25;4944710;28;20410;-70
2023/05/18 08:01:49;;;;;;;8.77;2.63;;;;;;;12.93;28.53;96385.50;4944190;28;20039;-70
2023/05/18 08:04:14;;;;;;;7.47;2.70;;;;;;;13.18;29.41;96388.09;4943866;29;20276;-70
2023/05/18 08:06:40;;;;;;;4.93;2.42;;;;;;;13.51;28.72;96388.91;4943441;28;20047;-70
2023/05/18 08:09:05;;;;;;;7.65;2.70;;;;;;;13.56;28.17;96391.88;4944257;28;20035;-69
2023/05/18 08:11:31;;;;;;;5.10;2.40;;;;;;;13.82;29.00;96379.97;4944016;28;20042;-70
2023/05/18 08:13:57;;;;;;;6.60;2.67;;;;;;;13.65;29.56;96390.81;4944891;28;20364;-70
2023/05/18 08:16:22;;;;;;;11.68;2.58;;;;;;;13.73;27.01;96381.06;4943790;28;20304;-70
2023/05/18 08:18:47;;;;;;;9.57;2.70;;;;;;;13.78;27.40;96384.03;4943939;28;20039;-70
2023/05/18 08:21:13;;;;;;;7.10;2.70;;;;;;;14.08;26.97;96384.16;4943511;28;20039;-70
2023/05/18 08:23:38;;;;;;;6.05;2.28;;;;;;;14.50;26.81;96386.38;4944338;28;20023;-70
2023/05/18 08:26:04;;;;;;;9.23;2.80;;;;;;;14.25;25.74;96387.50;4943378;28;20259;-70
2023/05/18 08:28:29;;;;;;;7.50;2.55;;;;;;;14.63;25.12;96378.56;4943412;28;20073;-71
2023/05/18 08:30:55;;;;;;;8.98;2.58;;;;;;;14.94;24.45;96388.25;4943813;28;20046;-70
2023/05/18 08:33:21;;;;;;;6.53;2.40;;;;;;;14.97;26.27;96387.91;4943050;28;20366;-70
2023/05/18 08:35:47;;;;;;;8.95;2.58;;;;;;;15.35;25.95;96384.19;4942765;28;20076;-70
2023/05/18 08:38:13;;;;;;;7.68;2.80;;;;;;;15.34;24.88;96381.69;4943608;28;20074;-70
2023/05/18 08:40:45;;;;;;;7.22;2.58;;;;;;;15.49;24.86;96385.16;4957154;28;20035;-69
2023/05/18 08:43:19;;;;;;;6.97;3.25;;;;;;;15.24;26.27;96388.19;4943866;28;20445;-70
2023/05/18 08:46:08;;;;;;;8.80;4.05;;;;;;;15.16;25.03;96376.75;4941265;29;20134;-69
2023/05/18 08:48:34;;;;;;;10.05;4.63;;;;;;;14.98;25.34;96383.34;4942891;29;20023;-70
2023/05/18 08:51:00;;;;;;;6.25;2.58;;;;;;;15.72;24.82;96384.19;4925925;29;20051;-70
2023/05/18 08:53:26;;;;;;;9.45;2.90;;;;;;;16.15;22.77;96378.94;4940789;28;20039;-70
2023/05/18 08:55:52;;;;;;;14.18;7.00;;;;;;;14.09;24.91;96391.16;4942520;29;20404;-70
2023/05/18 08:58:18;;;;;;;8.15;3.03;;;;;;;14.87;26.27;96390.03;4941858;28;20300;-70
2023/05/18 09:00:44;;;;;;;12.82;3.95;;;;;;;15.60;23.95;96391.06;4926022;29;20113;-70
2023/05/18 09:03:09;;;;;;;14.25;5.30;;;;;;;15.94;24.33;96386.81;4943462;28;20038;-70
2023/05/18 09:05:35;;;;;;;6.60;2.25;;;;;;;16.16;22.16;96377.91;4942690;28;20430;-70
2023/05/18 09:08:00;;;;;;;10.10;2.60;;;;;;;16.07;22.32;96371.84;4941285;29;20042;-70
2023/05/18 09:10:25;;;;;;;9.35;2.97;;;;;;;16.37;23.22;96390.50;4940589;29;20091;-70
2023/05/18 09:12:51;;;;;;;13.32;7.50;;;;;;;16.17;23.03;96388.47;4943790;28;20031;-70
2023/05/18 09:15:16;;;;;;;10.15;3.25;;;;;;;16.22;23.70;96388.69;4939317;28;20074;-70
2023/05/18 09:17:42;;;;;;;14.15;8.65;;;;;;;16.38;24.94;96384.09;4941988;28;20642;-70
2023/05/18 09:20:09;;;;;;;13.50;6.40;;;;;;;16.60;23.73;96382.16;4942744;28;20049;-70
2023/05/18 09:22:34;;;;;;;9.07;3.05;;;;;;;16.96;23.18;96382.13;4942349;28;20039;-70
2023/05/18 09:25:03;;;;;;;8.75;2.90;;;;;;;16.98;22.91;96382.75;4943648;28;20058;-71
2023/05/18 09:27:28;;;;;;;6.63;2.17;;;;;;;16.59;22.68;96380.50;4957638;28;20043;-70
2023/05/18 09:29:56;;;;;;;10.23;4.00;;;;;;;16.66;22.42;96377.88;4943476;28;20171;-69
2023/05/18 09:32:22;;;;;;;7.20;2.60;;;;;;;17.10;22.50;96378.44;4943322;28;20027;-70
2023/05/18 09:34:48;;;;;;;9.32;4.97;;;;;;;17.08;22.06;96377.84;4944476;28;20594;-70
2023/05/18 09:37:17;;;;;;;8.48;2.30;;;;;;;17.49;22.34;96372.59;4942888;28;20023;-70
2023/05/18 09:39:42;;;;;;;7.93;3.25;;;;;;;17.55;21.79;96385.25;4945540;28;20541;-70
2023/05/18 09:42:08;;;;;;;11.00;6.25;;;;;;;17.16;23.31;96371.47;4942879;28;20035;-70
2023/05/18 09:44:33;;;;;;;7.45;3.10;;;;;;;17.53;19.56;96371.16;4943470;28;20035;-70
2023/05/18 09:46:59;;;;;;;8.65;3.55;;;;;;;17.39;21.64;96372.97;4944262;28;20046;-70
2023/05/18 09:49:24;;;;;;;8.38;4.15;;;;;;;17.33;21.87;96368.44;4945318;28;20089;-70
2023/05/18 09:51:50;;;;;;;6.40;2.45;;;;;;;17.69;23.10;96378.00;4944418;28;20062;-70
2023/05/18 09:54:15;;;;;;;8.60;2.50;;;;;;;17.86;21.87;96374.94;4945304;28;20038;-70
2023/05/18 09:56:41;;;;;;;7.47;2.42;;;;;;;18.04;21.37;96371.63;4943472;28;20031;-70
2023/05/18 09:59:13;;;;;;;8.40;4.35;;;;;;;17.90;23.46;96381.56;4944071;28;20434;-70
2023/05/18 10:02:01;;;;;;;5.97;2.15;;;;;;;18.04;20.51;96372.47;4945071;28;20038;-70
2023/05/18 10:04:40;;;;;;;11.23;4.90;;;;;;;17.98;21.34;96372.47;4941419;28;20039;-69
2023/05/18 10:07:12;;;;;;;10.32;4.35;;;;;;;18.18;21.25;96367.06;4942063;28;20583;-70
2023/05/18 10:09:40;;;;;;;9.77;2.47;;;;;;;18.19;22.24;96363.34;4941468;28;20094;-70
2023/05/18 10:12:13;;;;;;;6.43;2.38;;;;;;;18.69;22.73;96362.00;4944523;28;20521;-70
2023/05/18 10:14:45;;;;;;;11.00;4.32;;;;;;;18.36;21.54;96366.41;4942902;28;20122;-70
2023/05/18 10:17:11;;;;;;;8.25;3.53;;;;;;;18.67;20.64;96364.91;4940808;28;20031;-70
2023/05/18 10:19:37;;;;;;;8.88;2.80;;;;;;;18.53;21.20;96360.59;4945530;28;20027;-70
2023/05/18 10:22:02;;;;;;;11.85;4.45;;;;;;;18.56;21.10;96358.28;4944627;28;20083;-70
2023/05/18 10:24:30;;;;;;;10.57;4.55;;;;;;;18.78;21.20;96358.06;4930418;28;20031;-70
2023/05/18 10:26:55;;;;;;;;;;;;;;;19.20;22.06;96356.81;4941454;28;20035;-69
2023/05/18 10:29:21;;;;;;;13.48;6.65;;;;;;;18.58;20.40;96351.88;4944586;28;20364;-70
2023/05/18 10:31:46;;;;;;;12.73;6.18;;;;;;;18.64;22.01;96345.66;4942713;28;20031;-70
2023/05/18 10:34:11;;;;;;;11.75;2.60;;;;;;;18.94;18.83;96358.63;4943466;28;20043;-70
2023/05/18 10:36:38;;;;;;;14.25;10.25;;;;;;;18.82;20.48;96356.59;4943907;28;20038;-70
2023/05/18 10:39:03;;;;;;;9.60;3.08;;;;;;;18.89;20.92;96361.13;4945446;28;20033;-70
2023/05/18 10:41:30;;;;;;;6.55;2.50;;;;;;;19.32;21.00;96351.63;4941044;28;20043;-70
2023/05/18 10:44:02;;;;;;;8.50;2.70;;;;;;;18.99;20.40;96355.25;4948757;28;20039;-70
2023/05/18 10:46:28;;;;;;;8.38;3.35;;;;;;;19.21;20.26;96356.63;4947314;28;20391;-70
2023/05/18 10:48:53;;;;;;;7.30;2.92;;;;;;;19.03;20.16;96356.50;4949000;28;20023;-70
2023/05/18 10:51:18;;;;;;;9.85;4.50;;;;;;;19.00;20.53;96349.66;4948154;28;20044;-70
2023/05/18 10:53:46;;;;;;;7.45;2.92;;;;;;;18.54;20.17;96346.06;4945815;28;20638;-70
2023/05/18 10:56:12;;;;;;;11.48;5.70;;;;;;;18.42;19.59;96344.03;4930038;28;20553;-70
2023/05/18 10:58:38;;;;;;;9.80;2.58;;;;;;;18.52;20.93;96343.59;4944345;28;20028;-70
2023/05/18 11:01:05;;;;;;;12.13;5.18;;;;;;;18.55;20.46;96343.16;4927603;28;20038;-70
2023/05/18 11:03:31;;;;;;;6.85;2.55;;;;;;;19.18;20.76;96346.25;4944780;28;20074;-69
2023/05/18 11:06:10;;;;;;;12.85;6.72;;;;;;;18.60;21.09;96342.56;4943467;28;20047;-70
2023/05/18 11:08:48;;;;;;;6.88;3.95;;;;;;;18.85;20.62;96338.31;4944598;28;20027;-70
2023/05/18 11:11:14;;;;;;;7.03;2.47;;;;;;;19.38;20.75;96334.53;4941866;28;20043;-70
2023/05/18 11:13:49;;;;;;;14.75;7.97;;;;;;;19.12;21.50;96330.94;4944237;28;20308;-70
2023/05/18 11:16:18;;;;;;;9.13;4.72;;;;;;;19.54;20.82;96330.50;4943633;29;20030;-69
2023/05/18 11:18:45;;;;;;;12.60;5.68;;;;;;;19.27;20.84;96329.81;4959394;28;20065;-70
2023/05/18 11:21:22;;;;;;;6.50;2.53;;;;;;;19.86;21.21;96329.66;4944319;28;20075;-70
2023/05/18 11:24:14;;;;;;;15.15;9.35;;;;;;;20.06;20.02;96331.38;4945037;28;20042;-70
2023/05/18 11:26:40;;;;;;;7.32;3.70;;;;;;;20.47;20.05;96329.91;4944929;28;20067;-69
2023/05/18 11:29:22;;;;;;;7.57;2.70;;;;;;;20.38;18.24;96325.03;4944846;28;20015;-70
2023/05/18 11:31:53;;;;;;;13.25;7.40;;;;;;;20.24;18.40;96322.47;4959407;28;20035;-70
2023/05/18 11:34:43;;;;;;;10.38;5.38;;;;;;;20.05;20.08;96321.59;4944318;28;20039;-69